Hauptseite
METAR-TAF:

METAR-TAF

Flughäfen :

Bozen, Italien

Breite: 46-28N, Länge: 011-20E, Höhe: 262 m

Beobachtung

Neuester Wetterbericht von vor 28 Minuten, um 18:50 UTC
Wind 8 kt aus Nord, variierte zwischen West/Nordwest und Ost/Nordost
Temperatur 27°C
Luftfeuchtigkeit 48%
Luftdruck 1017 hPa
Sichtweite 10 km oder mehr
Aufgelockert bewölkt in der Höhe von 8000 ft

METAR: LIPB 191850Z 35008KT 300V060 9999 SCT080 27/15 Q1017

Zeit: 21:18 (19:18 UTC)

Prognose

Neuester Wetterbericht von vor 2 Stunden und 18 Minuten, um 17:00 UTC
Gültige Prognose vom 19 um 18 UTC bis 20 um 18 UTC
Wind 4 kt aus unterschiedlichen Richtungen
Sichtweite 10 km oder mehr
Aufgelockert bewölkt in der Höhe von 4000 ft
Zeitweise
vom 20 um 12 UTC bis 20 um 18 UTC
Gewitter, Regen

TAF: LIPB 191700Z 1918/2018 VRB04KT 9999 SCT040 TEMPO 2012/2018 TSRA

Wetterbeobachtungen und Prognosen von mehr als 4000 Flughäfen (METAR und TAF Bericht).

Die verfügbaren Stationen werden durch gelbe und rote Markierungen auf der Karte dargestellt.

Führen Sie die Maus auf sie, um den Namen der Station zu sehen.

Darauf klicken, um die Beobachtung von Wetterbeobachtungen und Prognosen zu sehen.

Um die Karte zu ändern : klicken Sie auf den grünen Tasten mit einem schwarzen Kreuz Zum Vergrößern, auf den grünen Button mit einem Gedankenstrich zu verkleinern, oder auf die grünen Pfeile für benachbarte Karten.


METAR-TAF: